sensor_id;sensor_type;location;lat;lon;timestamp;P1;durP1;ratioP1;P2;durP2;ratioP2
6665;SDS011;3369;49.906;8.598;2023-03-24T00:00:09;2.13;;;2.03;;
6665;SDS011;3369;49.906;8.598;2023-03-24T00:02:38;3.33;;;2.40;;
6665;SDS011;3369;49.906;8.598;2023-03-24T00:05:12;2.97;;;2.43;;
6665;SDS011;3369;49.906;8.598;2023-03-24T00:07:40;4.83;;;2.77;;
6665;SDS011;3369;49.906;8.598;2023-03-24T00:10:07;2.67;;;2.47;;
6665;SDS011;3369;49.906;8.598;2023-03-24T00:12:37;3.87;;;2.93;;
6665;SDS011;3369;49.906;8.598;2023-03-24T00:15:05;4.27;;;3.00;;
6665;SDS011;3369;49.906;8.598;2023-03-24T00:17:32;3.07;;;2.77;;
6665;SDS011;3369;49.906;8.598;2023-03-24T00:20:00;4.83;;;3.00;;
6665;SDS011;3369;49.906;8.598;2023-03-24T00:22:35;3.00;;;2.77;;
6665;SDS011;3369;49.906;8.598;2023-03-24T00:25:02;4.83;;;3.00;;
6665;SDS011;3369;49.906;8.598;2023-03-24T00:27:29;2.97;;;2.43;;
6665;SDS011;3369;49.906;8.598;2023-03-24T00:29:55;3.20;;;2.63;;
6665;SDS011;3369;49.906;8.598;2023-03-24T00:32:23;3.10;;;2.80;;
6665;SDS011;3369;49.906;8.598;2023-03-24T00:34:49;4.23;;;2.50;;
6665;SDS011;3369;49.906;8.598;2023-03-24T00:37:16;3.00;;;2.53;;
6665;SDS011;3369;49.906;8.598;2023-03-24T00:39:45;3.23;;;2.30;;
6665;SDS011;3369;49.906;8.598;2023-03-24T00:42:11;2.60;;;2.40;;
6665;SDS011;3369;49.906;8.598;2023-03-24T00:44:37;2.83;;;2.53;;
6665;SDS011;3369;49.906;8.598;2023-03-24T00:47:03;2.80;;;2.47;;
6665;SDS011;3369;49.906;8.598;2023-03-24T00:49:32;2.47;;;2.27;;
6665;SDS011;3369;49.906;8.598;2023-03-24T00:52:18;2.37;;;2.17;;
6665;SDS011;3369;49.906;8.598;2023-03-24T00:54:46;3.27;;;2.60;;
6665;SDS011;3369;49.906;8.598;2023-03-24T00:57:14;2.90;;;2.60;;
6665;SDS011;3369;49.906;8.598;2023-03-24T00:59:57;2.30;;;2.07;;
6665;SDS011;3369;49.906;8.598;2023-03-24T01:02:24;3.00;;;2.50;;
6665;SDS011;3369;49.906;8.598;2023-03-24T01:04:55;2.37;;;1.93;;
6665;SDS011;3369;49.906;8.598;2023-03-24T01:07:38;2.30;;;2.10;;
6665;SDS011;3369;49.906;8.598;2023-03-24T01:29:31;3.07;;;2.77;;
6665;SDS011;3369;49.906;8.598;2023-03-24T01:31:57;3.10;;;2.80;;
6665;SDS011;3369;49.906;8.598;2023-03-24T01:34:23;3.47;;;2.70;;
6665;SDS011;3369;49.906;8.598;2023-03-24T01:36:49;3.53;;;2.60;;
6665;SDS011;3369;49.906;8.598;2023-03-24T01:39:15;3.50;;;2.87;;
6665;SDS011;3369;49.906;8.598;2023-03-24T01:41:55;4.30;;;2.60;;
6665;SDS011;3369;49.906;8.598;2023-03-24T01:44:32;3.00;;;2.53;;
6665;SDS011;3369;49.906;8.598;2023-03-24T01:49:46;4.90;;;2.97;;
6665;SDS011;3369;49.906;8.598;2023-03-24T01:52:30;3.67;;;2.93;;
6665;SDS011;3369;49.906;8.598;2023-03-24T01:55:08;4.07;;;2.80;;
6665;SDS011;3369;49.906;8.598;2023-03-24T01:57:42;4.07;;;2.50;;
6665;SDS011;3369;49.906;8.598;2023-03-24T02:00:12;3.37;;;3.03;;
6665;SDS011;3369;49.906;8.598;2023-03-24T02:02:42;3.23;;;2.47;;
6665;SDS011;3369;49.906;8.598;2023-03-24T02:05:11;3.17;;;2.70;;
6665;SDS011;3369;49.906;8.598;2023-03-24T02:07:40;2.97;;;2.60;;
6665;SDS011;3369;49.906;8.598;2023-03-24T02:10:15;2.97;;;2.50;;
6665;SDS011;3369;49.906;8.598;2023-03-24T02:12:43;3.03;;;2.63;;
6665;SDS011;3369;49.906;8.598;2023-03-24T02:15:11;2.83;;;2.57;;
6665;SDS011;3369;49.906;8.598;2023-03-24T02:20:45;3.77;;;2.40;;
6665;SDS011;3369;49.906;8.598;2023-03-24T02:23:45;3.27;;;2.37;;
6665;SDS011;3369;49.906;8.598;2023-03-24T02:26:51;3.57;;;3.27;;
6665;SDS011;3369;49.906;8.598;2023-03-24T02:35:39;3.60;;;2.70;;
6665;SDS011;3369;49.906;8.598;2023-03-24T02:38:42;2.73;;;2.50;;
6665;SDS011;3369;49.906;8.598;2023-03-24T02:47:20;2.30;;;2.10;;
6665;SDS011;3369;49.906;8.598;2023-03-24T02:49:55;3.00;;;2.50;;
6665;SDS011;3369;49.906;8.598;2023-03-24T02:58:12;3.43;;;2.40;;
6665;SDS011;3369;49.906;8.598;2023-03-24T03:00:44;2.60;;;2.37;;
6665;SDS011;3369;49.906;8.598;2023-03-24T03:03:18;2.60;;;2.40;;
6665;SDS011;3369;49.906;8.598;2023-03-24T03:05:55;2.20;;;2.00;;
6665;SDS011;3369;49.906;8.598;2023-03-24T03:08:25;2.60;;;2.30;;
6665;SDS011;3369;49.906;8.598;2023-03-24T03:10:56;5.63;;;2.73;;
6665;SDS011;3369;49.906;8.598;2023-03-24T03:15:56;2.30;;;2.10;;
6665;SDS011;3369;49.906;8.598;2023-03-24T03:18:44;3.80;;;2.00;;
6665;SDS011;3369;49.906;8.598;2023-03-24T03:21:16;2.67;;;2.47;;
6665;SDS011;3369;49.906;8.598;2023-03-24T03:23:53;2.50;;;2.30;;
6665;SDS011;3369;49.906;8.598;2023-03-24T03:26:22;2.73;;;2.33;;
6665;SDS011;3369;49.906;8.598;2023-03-24T03:28:55;2.50;;;1.90;;
6665;SDS011;3369;49.906;8.598;2023-03-24T03:31:32;2.67;;;1.97;;
6665;SDS011;3369;49.906;8.598;2023-03-24T03:39:53;2.60;;;2.40;;
6665;SDS011;3369;49.906;8.598;2023-03-24T03:42:30;2.80;;;2.13;;
6665;SDS011;3369;49.906;8.598;2023-03-24T03:44:56;3.60;;;2.50;;
6665;SDS011;3369;49.906;8.598;2023-03-24T03:47:21;3.37;;;2.67;;
6665;SDS011;3369;49.906;8.598;2023-03-24T03:49:47;2.63;;;2.43;;
6665;SDS011;3369;49.906;8.598;2023-03-24T03:52:15;2.93;;;2.60;;
6665;SDS011;3369;49.906;8.598;2023-03-24T03:54:41;4.20;;;2.30;;
6665;SDS011;3369;49.906;8.598;2023-03-24T03:57:09;5.20;;;2.43;;
6665;SDS011;3369;49.906;8.598;2023-03-24T03:59:37;2.93;;;2.37;;
6665;SDS011;3369;49.906;8.598;2023-03-24T04:02:12;4.47;;;2.80;;
6665;SDS011;3369;49.906;8.598;2023-03-24T04:04:55;5.40;;;2.70;;
6665;SDS011;3369;49.906;8.598;2023-03-24T04:07:23;4.00;;;3.00;;
6665;SDS011;3369;49.906;8.598;2023-03-24T04:18:24;4.50;;;3.50;;
6665;SDS011;3369;49.906;8.598;2023-03-24T04:24:21;3.93;;;3.57;;
6665;SDS011;3369;49.906;8.598;2023-03-24T04:30:00;5.17;;;3.60;;
6665;SDS011;3369;49.906;8.598;2023-03-24T04:32:32;4.53;;;3.30;;
6665;SDS011;3369;49.906;8.598;2023-03-24T04:35:13;5.30;;;4.10;;
6665;SDS011;3369;49.906;8.598;2023-03-24T04:37:55;4.37;;;3.70;;
6665;SDS011;3369;49.906;8.598;2023-03-24T04:40:31;4.77;;;3.80;;
6665;SDS011;3369;49.906;8.598;2023-03-24T04:43:01;4.07;;;3.70;;
6665;SDS011;3369;49.906;8.598;2023-03-24T04:45:32;4.70;;;3.90;;
6665;SDS011;3369;49.906;8.598;2023-03-24T04:48:01;6.40;;;3.93;;
6665;SDS011;3369;49.906;8.598;2023-03-24T04:50:30;3.70;;;3.40;;
6665;SDS011;3369;49.906;8.598;2023-03-24T04:53:16;5.20;;;4.70;;
6665;SDS011;3369;49.906;8.598;2023-03-24T04:58:14;5.53;;;4.07;;
6665;SDS011;3369;49.906;8.598;2023-03-24T05:00:43;4.07;;;3.73;;
6665;SDS011;3369;49.906;8.598;2023-03-24T05:03:12;4.93;;;4.10;;
6665;SDS011;3369;49.906;8.598;2023-03-24T05:05:39;5.07;;;4.57;;
6665;SDS011;3369;49.906;8.598;2023-03-24T05:08:11;4.60;;;4.20;;
6665;SDS011;3369;49.906;8.598;2023-03-24T05:10:38;6.53;;;4.70;;
6665;SDS011;3369;49.906;8.598;2023-03-24T05:13:04;5.60;;;5.00;;
6665;SDS011;3369;49.906;8.598;2023-03-24T05:15:31;7.53;;;4.67;;
6665;SDS011;3369;49.906;8.598;2023-03-24T05:17:57;5.40;;;4.47;;
6665;SDS011;3369;49.906;8.598;2023-03-24T05:20:23;7.13;;;5.40;;
6665;SDS011;3369;49.906;8.598;2023-03-24T05:22:50;5.10;;;4.70;;
6665;SDS011;3369;49.906;8.598;2023-03-24T05:25:16;6.53;;;4.63;;
6665;SDS011;3369;49.906;8.598;2023-03-24T05:27:43;4.93;;;4.47;;
6665;SDS011;3369;49.906;8.598;2023-03-24T05:30:09;5.20;;;4.10;;
6665;SDS011;3369;49.906;8.598;2023-03-24T05:32:35;5.80;;;4.40;;
6665;SDS011;3369;49.906;8.598;2023-03-24T05:35:01;5.30;;;4.80;;
6665;SDS011;3369;49.906;8.598;2023-03-24T05:37:27;6.10;;;4.63;;
6665;SDS011;3369;49.906;8.598;2023-03-24T05:39:53;4.90;;;4.40;;
6665;SDS011;3369;49.906;8.598;2023-03-24T05:42:19;5.30;;;4.10;;
6665;SDS011;3369;49.906;8.598;2023-03-24T05:44:45;4.43;;;4.03;;
6665;SDS011;3369;49.906;8.598;2023-03-24T05:47:12;6.93;;;3.93;;
6665;SDS011;3369;49.906;8.598;2023-03-24T05:49:40;5.87;;;3.77;;
6665;SDS011;3369;49.906;8.598;2023-03-24T05:52:09;3.30;;;3.07;;
6665;SDS011;3369;49.906;8.598;2023-03-24T05:54:35;6.40;;;3.53;;
6665;SDS011;3369;49.906;8.598;2023-03-24T05:57:03;4.07;;;3.47;;
6665;SDS011;3369;49.906;8.598;2023-03-24T05:59:32;4.07;;;3.60;;
6665;SDS011;3369;49.906;8.598;2023-03-24T06:01:58;3.70;;;3.30;;
6665;SDS011;3369;49.906;8.598;2023-03-24T06:04:25;4.00;;;3.70;;
6665;SDS011;3369;49.906;8.598;2023-03-24T06:06:54;3.60;;;3.30;;
6665;SDS011;3369;49.906;8.598;2023-03-24T06:09:20;3.80;;;3.50;;
6665;SDS011;3369;49.906;8.598;2023-03-24T06:11:46;4.10;;;3.30;;
6665;SDS011;3369;49.906;8.598;2023-03-24T06:14:11;3.57;;;2.90;;
6665;SDS011;3369;49.906;8.598;2023-03-24T06:16:37;3.80;;;3.47;;
6665;SDS011;3369;49.906;8.598;2023-03-24T06:19:03;3.50;;;3.20;;
6665;SDS011;3369;49.906;8.598;2023-03-24T06:21:30;3.77;;;3.47;;
6665;SDS011;3369;49.906;8.598;2023-03-24T06:23:58;4.77;;;3.40;;
6665;SDS011;3369;49.906;8.598;2023-03-24T06:26:26;3.50;;;3.20;;
6665;SDS011;3369;49.906;8.598;2023-03-24T06:28:54;3.93;;;3.53;;
6665;SDS011;3369;49.906;8.598;2023-03-24T06:31:21;4.43;;;3.53;;
6665;SDS011;3369;49.906;8.598;2023-03-24T06:33:47;3.20;;;3.00;;
6665;SDS011;3369;49.906;8.598;2023-03-24T06:36:15;3.07;;;2.87;;
6665;SDS011;3369;49.906;8.598;2023-03-24T06:38:42;3.87;;;2.90;;
6665;SDS011;3369;49.906;8.598;2023-03-24T06:41:08;3.37;;;2.80;;
6665;SDS011;3369;49.906;8.598;2023-03-24T06:46:08;4.77;;;3.23;;
6665;SDS011;3369;49.906;8.598;2023-03-24T06:48:34;2.80;;;2.60;;
6665;SDS011;3369;49.906;8.598;2023-03-24T07:12:55;2.63;;;2.40;;
6665;SDS011;3369;49.906;8.598;2023-03-24T07:15:21;2.63;;;2.43;;
6665;SDS011;3369;49.906;8.598;2023-03-24T07:17:47;1.97;;;1.87;;
6665;SDS011;3369;49.906;8.598;2023-03-24T07:20:13;2.20;;;2.10;;
6665;SDS011;3369;49.906;8.598;2023-03-24T07:22:40;1.97;;;1.87;;
6665;SDS011;3369;49.906;8.598;2023-03-24T07:25:06;2.27;;;2.07;;
6665;SDS011;3369;49.906;8.598;2023-03-24T07:27:32;2.23;;;2.03;;
6665;SDS011;3369;49.906;8.598;2023-03-24T07:29:59;3.27;;;2.20;;
6665;SDS011;3369;49.906;8.598;2023-03-24T07:32:28;2.47;;;2.27;;
6665;SDS011;3369;49.906;8.598;2023-03-24T07:34:54;2.30;;;2.10;;
6665;SDS011;3369;49.906;8.598;2023-03-24T07:37:21;2.70;;;2.50;;
6665;SDS011;3369;49.906;8.598;2023-03-24T07:39:47;5.87;;;2.50;;
6665;SDS011;3369;49.906;8.598;2023-03-24T07:42:13;2.43;;;2.23;;
6665;SDS011;3369;49.906;8.598;2023-03-24T07:44:38;2.60;;;2.40;;
6665;SDS011;3369;49.906;8.598;2023-03-24T07:47:04;3.80;;;2.67;;
6665;SDS011;3369;49.906;8.598;2023-03-24T07:49:30;2.87;;;2.67;;
6665;SDS011;3369;49.906;8.598;2023-03-24T07:51:56;2.83;;;2.60;;
6665;SDS011;3369;49.906;8.598;2023-03-24T07:54:23;2.70;;;2.50;;
6665;SDS011;3369;49.906;8.598;2023-03-24T07:56:49;2.73;;;2.53;;
6665;SDS011;3369;49.906;8.598;2023-03-24T07:59:15;3.13;;;2.67;;
6665;SDS011;3369;49.906;8.598;2023-03-24T08:01:41;2.90;;;2.60;;
6665;SDS011;3369;49.906;8.598;2023-03-24T08:04:08;2.80;;;2.60;;
6665;SDS011;3369;49.906;8.598;2023-03-24T08:06:37;5.17;;;3.20;;
6665;SDS011;3369;49.906;8.598;2023-03-24T08:09:02;3.23;;;2.97;;
6665;SDS011;3369;49.906;8.598;2023-03-24T08:11:28;3.67;;;3.10;;
6665;SDS011;3369;49.906;8.598;2023-03-24T08:13:54;3.80;;;3.50;;
6665;SDS011;3369;49.906;8.598;2023-03-24T08:16:20;4.30;;;3.73;;
6665;SDS011;3369;49.906;8.598;2023-03-24T08:18:46;4.07;;;3.63;;
6665;SDS011;3369;49.906;8.598;2023-03-24T08:21:12;4.40;;;4.00;;
6665;SDS011;3369;49.906;8.598;2023-03-24T08:23:38;4.07;;;3.70;;
6665;SDS011;3369;49.906;8.598;2023-03-24T08:26:04;8.10;;;4.90;;
6665;SDS011;3369;49.906;8.598;2023-03-24T08:28:31;5.83;;;4.57;;
6665;SDS011;3369;49.906;8.598;2023-03-24T08:30:57;4.80;;;4.27;;
6665;SDS011;3369;49.906;8.598;2023-03-24T08:33:22;5.40;;;4.87;;
6665;SDS011;3369;49.906;8.598;2023-03-24T08:35:51;5.20;;;4.70;;
6665;SDS011;3369;49.906;8.598;2023-03-24T08:38:21;5.63;;;4.33;;
6665;SDS011;3369;49.906;8.598;2023-03-24T08:40:55;5.47;;;4.67;;
6665;SDS011;3369;49.906;8.598;2023-03-24T08:43:22;5.40;;;4.97;;
6665;SDS011;3369;49.906;8.598;2023-03-24T08:45:49;5.00;;;4.60;;
6665;SDS011;3369;49.906;8.598;2023-03-24T08:48:16;4.60;;;4.20;;
6665;SDS011;3369;49.906;8.598;2023-03-24T08:50:41;4.40;;;4.10;;
6665;SDS011;3369;49.906;8.598;2023-03-24T08:53:08;4.23;;;3.70;;
6665;SDS011;3369;49.906;8.598;2023-03-24T08:55:35;4.13;;;3.73;;
6665;SDS011;3369;49.906;8.598;2023-03-24T08:58:07;3.80;;;3.50;;
6665;SDS011;3369;49.906;8.598;2023-03-24T09:00:37;4.47;;;3.57;;
6665;SDS011;3369;49.906;8.598;2023-03-24T09:03:04;5.83;;;4.17;;
6665;SDS011;3369;49.906;8.598;2023-03-24T09:05:30;3.57;;;3.27;;
6665;SDS011;3369;49.906;8.598;2023-03-24T09:07:56;3.40;;;2.87;;
6665;SDS011;3369;49.906;8.598;2023-03-24T09:10:24;3.77;;;3.40;;
6665;SDS011;3369;49.906;8.598;2023-03-24T09:12:50;3.30;;;3.07;;
6665;SDS011;3369;49.906;8.598;2023-03-24T09:15:17;3.37;;;3.07;;
6665;SDS011;3369;49.906;8.598;2023-03-24T09:17:42;4.97;;;3.20;;
6665;SDS011;3369;49.906;8.598;2023-03-24T09:20:10;3.10;;;2.90;;
6665;SDS011;3369;49.906;8.598;2023-03-24T09:22:39;3.00;;;2.80;;
6665;SDS011;3369;49.906;8.598;2023-03-24T09:25:09;3.40;;;2.37;;
6665;SDS011;3369;49.906;8.598;2023-03-24T09:27:37;2.37;;;2.20;;
6665;SDS011;3369;49.906;8.598;2023-03-24T09:30:03;2.93;;;2.40;;
6665;SDS011;3369;49.906;8.598;2023-03-24T09:32:30;2.37;;;2.17;;
6665;SDS011;3369;49.906;8.598;2023-03-24T09:34:57;3.30;;;2.40;;
6665;SDS011;3369;49.906;8.598;2023-03-24T09:37:23;2.57;;;2.37;;
6665;SDS011;3369;49.906;8.598;2023-03-24T09:39:52;2.90;;;2.60;;
6665;SDS011;3369;49.906;8.598;2023-03-24T09:42:20;2.67;;;2.47;;
6665;SDS011;3369;49.906;8.598;2023-03-24T09:44:50;2.60;;;2.40;;
6665;SDS011;3369;49.906;8.598;2023-03-24T09:47:35;2.57;;;2.37;;
6665;SDS011;3369;49.906;8.598;2023-03-24T09:50:18;2.67;;;2.43;;
6665;SDS011;3369;49.906;8.598;2023-03-24T09:52:48;2.80;;;2.07;;
6665;SDS011;3369;49.906;8.598;2023-03-24T09:55:27;3.37;;;1.50;;
6665;SDS011;3369;49.906;8.598;2023-03-24T09:57:58;2.53;;;1.90;;
6665;SDS011;3369;49.906;8.598;2023-03-24T10:00:30;1.40;;;1.30;;
6665;SDS011;3369;49.906;8.598;2023-03-24T10:03:01;2.30;;;1.73;;
6665;SDS011;3369;49.906;8.598;2023-03-24T10:05:40;1.23;;;1.03;;
6665;SDS011;3369;49.906;8.598;2023-03-24T10:08:20;3.57;;;1.27;;
6665;SDS011;3369;49.906;8.598;2023-03-24T10:11:03;1.97;;;1.20;;
6665;SDS011;3369;49.906;8.598;2023-03-24T10:21:53;0.90;;;0.90;;
6665;SDS011;3369;49.906;8.598;2023-03-24T10:24:35;0.97;;;0.93;;
6665;SDS011;3369;49.906;8.598;2023-03-24T10:32:36;0.90;;;0.83;;
6665;SDS011;3369;49.906;8.598;2023-03-24T10:35:03;1.70;;;1.07;;
6665;SDS011;3369;49.906;8.598;2023-03-24T10:37:34;1.87;;;1.03;;
6665;SDS011;3369;49.906;8.598;2023-03-24T10:40:00;1.10;;;1.00;;
6665;SDS011;3369;49.906;8.598;2023-03-24T10:42:31;1.00;;;0.90;;
6665;SDS011;3369;49.906;8.598;2023-03-24T10:44:59;1.50;;;0.83;;
6665;SDS011;3369;49.906;8.598;2023-03-24T10:47:27;0.90;;;0.90;;
6665;SDS011;3369;49.906;8.598;2023-03-24T10:49:59;0.93;;;0.80;;
6665;SDS011;3369;49.906;8.598;2023-03-24T10:52:27;1.00;;;0.90;;
6665;SDS011;3369;49.906;8.598;2023-03-24T10:55:06;1.37;;;0.90;;
6665;SDS011;3369;49.906;8.598;2023-03-24T10:57:39;1.57;;;1.20;;
6665;SDS011;3369;49.906;8.598;2023-03-24T11:00:08;1.13;;;0.90;;
6665;SDS011;3369;49.906;8.598;2023-03-24T11:03:34;0.80;;;0.80;;
6665;SDS011;3369;49.906;8.598;2023-03-24T11:05:48;2.70;;;0.90;;
6665;SDS011;3369;49.906;8.598;2023-03-24T11:08:23;0.90;;;0.87;;
6665;SDS011;3369;49.906;8.598;2023-03-24T11:10:53;1.17;;;0.87;;
6665;SDS011;3369;49.906;8.598;2023-03-24T11:13:29;0.77;;;0.70;;
6665;SDS011;3369;49.906;8.598;2023-03-24T11:18:54;1.73;;;0.83;;
6665;SDS011;3369;49.906;8.598;2023-03-24T11:21:22;0.57;;;0.57;;
6665;SDS011;3369;49.906;8.598;2023-03-24T11:23:48;1.23;;;0.90;;
6665;SDS011;3369;49.906;8.598;2023-03-24T11:26:19;1.17;;;1.00;;
6665;SDS011;3369;49.906;8.598;2023-03-24T11:31:34;1.17;;;0.80;;
6665;SDS011;3369;49.906;8.598;2023-03-24T11:39:29;2.53;;;0.80;;
6665;SDS011;3369;49.906;8.598;2023-03-24T11:49:52;0.77;;;0.77;;
6665;SDS011;3369;49.906;8.598;2023-03-24T11:52:37;2.40;;;1.00;;
6665;SDS011;3369;49.906;8.598;2023-03-24T11:55:18;4.63;;;1.27;;
6665;SDS011;3369;49.906;8.598;2023-03-24T11:58:01;1.10;;;0.77;;
6665;SDS011;3369;49.906;8.598;2023-03-24T12:00:34;1.00;;;0.90;;
6665;SDS011;3369;49.906;8.598;2023-03-24T12:08:56;2.27;;;1.00;;
6665;SDS011;3369;49.906;8.598;2023-03-24T12:11:32;3.60;;;0.80;;
6665;SDS011;3369;49.906;8.598;2023-03-24T12:14:17;1.73;;;1.00;;
6665;SDS011;3369;49.906;8.598;2023-03-24T12:16:56;1.73;;;0.93;;
6665;SDS011;3369;49.906;8.598;2023-03-24T12:22:14;2.93;;;0.83;;
6665;SDS011;3369;49.906;8.598;2023-03-24T12:25:14;1.47;;;0.97;;
6665;SDS011;3369;49.906;8.598;2023-03-24T12:27:50;1.87;;;0.77;;
6665;SDS011;3369;49.906;8.598;2023-03-24T12:30:24;2.37;;;1.10;;
6665;SDS011;3369;49.906;8.598;2023-03-24T12:46:28;3.40;;;1.57;;
6665;SDS011;3369;49.906;8.598;2023-03-24T12:57:44;2.80;;;1.10;;
6665;SDS011;3369;49.906;8.598;2023-03-24T13:00:37;3.33;;;1.23;;
6665;SDS011;3369;49.906;8.598;2023-03-24T13:03:25;3.53;;;1.10;;
6665;SDS011;3369;49.906;8.598;2023-03-24T13:06:02;1.47;;;0.80;;
6665;SDS011;3369;49.906;8.598;2023-03-24T13:32:48;4.00;;;1.10;;
6665;SDS011;3369;49.906;8.598;2023-03-24T13:35:27;2.50;;;1.23;;
6665;SDS011;3369;49.906;8.598;2023-03-24T13:38:18;4.63;;;1.20;;
6665;SDS011;3369;49.906;8.598;2023-03-24T13:40:46;4.30;;;1.30;;
6665;SDS011;3369;49.906;8.598;2023-03-24T13:43:17;4.63;;;1.50;;
6665;SDS011;3369;49.906;8.598;2023-03-24T13:45:48;2.53;;;1.13;;
6665;SDS011;3369;49.906;8.598;2023-03-24T13:51:06;1.70;;;1.03;;
6665;SDS011;3369;49.906;8.598;2023-03-24T13:53:45;3.03;;;1.17;;
6665;SDS011;3369;49.906;8.598;2023-03-24T13:56:21;3.03;;;1.00;;
6665;SDS011;3369;49.906;8.598;2023-03-24T14:01:32;3.70;;;1.40;;
6665;SDS011;3369;49.906;8.598;2023-03-24T14:09:26;1.80;;;0.97;;
6665;SDS011;3369;49.906;8.598;2023-03-24T14:14:28;3.20;;;1.00;;
6665;SDS011;3369;49.906;8.598;2023-03-24T14:22:27;3.43;;;1.07;;
6665;SDS011;3369;49.906;8.598;2023-03-24T14:25:01;2.93;;;1.17;;
6665;SDS011;3369;49.906;8.598;2023-03-24T14:27:51;2.40;;;1.50;;
6665;SDS011;3369;49.906;8.598;2023-03-24T14:32:56;3.27;;;1.00;;
6665;SDS011;3369;49.906;8.598;2023-03-24T14:40:40;2.00;;;1.10;;
6665;SDS011;3369;49.906;8.598;2023-03-24T14:46:04;1.70;;;0.97;;
6665;SDS011;3369;49.906;8.598;2023-03-24T14:51:25;1.00;;;0.90;;
6665;SDS011;3369;49.906;8.598;2023-03-24T14:54:05;1.30;;;0.90;;
6665;SDS011;3369;49.906;8.598;2023-03-24T14:56:39;1.30;;;0.60;;
6665;SDS011;3369;49.906;8.598;2023-03-24T14:59:14;3.63;;;1.70;;
6665;SDS011;3369;49.906;8.598;2023-03-24T15:01:50;4.50;;;1.10;;
6665;SDS011;3369;49.906;8.598;2023-03-24T15:04:24;1.57;;;0.90;;
6665;SDS011;3369;49.906;8.598;2023-03-24T15:06:50;2.00;;;0.90;;
6665;SDS011;3369;49.906;8.598;2023-03-24T15:09:16;3.60;;;1.07;;
6665;SDS011;3369;49.906;8.598;2023-03-24T15:11:42;2.90;;;1.17;;
6665;SDS011;3369;49.906;8.598;2023-03-24T15:14:20;2.20;;;0.90;;
6665;SDS011;3369;49.906;8.598;2023-03-24T15:16:52;1.87;;;1.10;;
6665;SDS011;3369;49.906;8.598;2023-03-24T15:19:25;5.40;;;1.53;;
6665;SDS011;3369;49.906;8.598;2023-03-24T15:21:57;1.83;;;1.00;;
6665;SDS011;3369;49.906;8.598;2023-03-24T15:24:34;1.30;;;0.80;;
6665;SDS011;3369;49.906;8.598;2023-03-24T15:29:30;1.23;;;1.10;;
6665;SDS011;3369;49.906;8.598;2023-03-24T15:31:59;0.97;;;0.77;;
6665;SDS011;3369;49.906;8.598;2023-03-24T15:34:27;4.00;;;1.00;;
6665;SDS011;3369;49.906;8.598;2023-03-24T15:39:26;4.57;;;1.17;;
6665;SDS011;3369;49.906;8.598;2023-03-24T15:41:54;3.77;;;1.33;;
6665;SDS011;3369;49.906;8.598;2023-03-24T15:44:29;2.47;;;1.10;;
6665;SDS011;3369;49.906;8.598;2023-03-24T15:46:55;2.93;;;1.10;;
6665;SDS011;3369;49.906;8.598;2023-03-24T15:49:30;2.00;;;1.07;;
6665;SDS011;3369;49.906;8.598;2023-03-24T15:52:22;1.47;;;1.00;;
6665;SDS011;3369;49.906;8.598;2023-03-24T15:54:48;2.73;;;1.00;;
6665;SDS011;3369;49.906;8.598;2023-03-24T15:57:17;2.00;;;0.90;;
6665;SDS011;3369;49.906;8.598;2023-03-24T16:02:46;2.47;;;0.90;;
6665;SDS011;3369;49.906;8.598;2023-03-24T16:05:21;2.80;;;1.10;;
6665;SDS011;3369;49.906;8.598;2023-03-24T16:07:59;1.60;;;0.70;;
6665;SDS011;3369;49.906;8.598;2023-03-24T16:10:35;3.20;;;1.13;;
6665;SDS011;3369;49.906;8.598;2023-03-24T16:13:20;1.37;;;0.90;;
6665;SDS011;3369;49.906;8.598;2023-03-24T16:15:57;3.53;;;1.50;;
6665;SDS011;3369;49.906;8.598;2023-03-24T16:18:42;2.83;;;1.27;;
6665;SDS011;3369;49.906;8.598;2023-03-24T16:21:13;2.73;;;1.10;;
6665;SDS011;3369;49.906;8.598;2023-03-24T16:23:42;2.33;;;1.40;;
6665;SDS011;3369;49.906;8.598;2023-03-24T16:26:11;4.50;;;1.43;;
6665;SDS011;3369;49.906;8.598;2023-03-24T16:28:38;3.10;;;1.10;;
6665;SDS011;3369;49.906;8.598;2023-03-24T16:31:04;4.90;;;1.40;;
6665;SDS011;3369;49.906;8.598;2023-03-24T16:33:30;2.23;;;1.10;;
6665;SDS011;3369;49.906;8.598;2023-03-24T16:35:57;3.10;;;1.00;;
6665;SDS011;3369;49.906;8.598;2023-03-24T16:38:24;1.77;;;0.93;;
6665;SDS011;3369;49.906;8.598;2023-03-24T16:40:51;1.67;;;0.97;;
6665;SDS011;3369;49.906;8.598;2023-03-24T16:43:19;3.27;;;1.30;;
6665;SDS011;3369;49.906;8.598;2023-03-24T16:45:45;2.33;;;1.10;;
6665;SDS011;3369;49.906;8.598;2023-03-24T16:48:13;4.63;;;1.30;;
6665;SDS011;3369;49.906;8.598;2023-03-24T16:50:46;2.67;;;1.40;;
6665;SDS011;3369;49.906;8.598;2023-03-24T16:53:15;3.10;;;1.07;;
6665;SDS011;3369;49.906;8.598;2023-03-24T16:55:45;5.60;;;1.23;;
6665;SDS011;3369;49.906;8.598;2023-03-24T16:58:12;3.77;;;1.03;;
6665;SDS011;3369;49.906;8.598;2023-03-24T17:00:40;5.70;;;1.30;;
6665;SDS011;3369;49.906;8.598;2023-03-24T17:03:09;3.60;;;1.10;;
6665;SDS011;3369;49.906;8.598;2023-03-24T17:05:47;2.47;;;1.30;;
6665;SDS011;3369;49.906;8.598;2023-03-24T17:08:15;2.97;;;1.40;;
6665;SDS011;3369;49.906;8.598;2023-03-24T17:10:43;4.73;;;1.17;;
6665;SDS011;3369;49.906;8.598;2023-03-24T17:13:21;3.43;;;1.10;;
6665;SDS011;3369;49.906;8.598;2023-03-24T17:15:51;2.73;;;1.10;;
6665;SDS011;3369;49.906;8.598;2023-03-24T17:18:17;2.53;;;1.27;;
6665;SDS011;3369;49.906;8.598;2023-03-24T17:20:43;3.57;;;1.37;;
6665;SDS011;3369;49.906;8.598;2023-03-24T17:23:10;3.67;;;1.30;;
6665;SDS011;3369;49.906;8.598;2023-03-24T17:25:38;2.97;;;1.37;;
6665;SDS011;3369;49.906;8.598;2023-03-24T17:28:05;2.70;;;1.20;;
6665;SDS011;3369;49.906;8.598;2023-03-24T17:30:36;4.43;;;1.50;;
6665;SDS011;3369;49.906;8.598;2023-03-24T17:33:02;2.70;;;1.33;;
6665;SDS011;3369;49.906;8.598;2023-03-24T17:35:28;1.63;;;0.90;;
6665;SDS011;3369;49.906;8.598;2023-03-24T17:37:54;3.07;;;1.10;;
6665;SDS011;3369;49.906;8.598;2023-03-24T17:40:19;2.43;;;1.30;;
6665;SDS011;3369;49.906;8.598;2023-03-24T17:42:45;2.93;;;1.27;;
6665;SDS011;3369;49.906;8.598;2023-03-24T17:45:12;3.30;;;1.23;;
6665;SDS011;3369;49.906;8.598;2023-03-24T17:47:40;2.87;;;1.20;;
6665;SDS011;3369;49.906;8.598;2023-03-24T17:50:06;2.47;;;1.00;;
6665;SDS011;3369;49.906;8.598;2023-03-24T17:52:36;4.93;;;1.43;;
6665;SDS011;3369;49.906;8.598;2023-03-24T17:55:03;2.00;;;1.10;;
6665;SDS011;3369;49.906;8.598;2023-03-24T17:57:30;2.93;;;1.73;;
6665;SDS011;3369;49.906;8.598;2023-03-24T17:59:56;4.73;;;1.40;;
6665;SDS011;3369;49.906;8.598;2023-03-24T18:02:21;3.20;;;1.40;;
6665;SDS011;3369;49.906;8.598;2023-03-24T18:04:47;2.90;;;1.50;;
6665;SDS011;3369;49.906;8.598;2023-03-24T18:07:13;2.83;;;1.10;;
6665;SDS011;3369;49.906;8.598;2023-03-24T18:09:39;3.20;;;0.90;;
6665;SDS011;3369;49.906;8.598;2023-03-24T18:12:05;2.30;;;1.10;;
6665;SDS011;3369;49.906;8.598;2023-03-24T18:14:31;3.93;;;1.10;;
6665;SDS011;3369;49.906;8.598;2023-03-24T18:16:58;2.20;;;1.30;;
6665;SDS011;3369;49.906;8.598;2023-03-24T18:19:25;3.80;;;1.17;;
6665;SDS011;3369;49.906;8.598;2023-03-24T18:21:54;3.20;;;1.20;;
6665;SDS011;3369;49.906;8.598;2023-03-24T18:24:23;3.20;;;1.13;;
6665;SDS011;3369;49.906;8.598;2023-03-24T18:26:49;2.23;;;1.30;;
6665;SDS011;3369;49.906;8.598;2023-03-24T18:29:15;3.20;;;1.40;;
6665;SDS011;3369;49.906;8.598;2023-03-24T18:31:42;3.70;;;1.70;;
6665;SDS011;3369;49.906;8.598;2023-03-24T18:34:11;3.03;;;1.47;;
6665;SDS011;3369;49.906;8.598;2023-03-24T18:36:37;3.17;;;1.40;;
6665;SDS011;3369;49.906;8.598;2023-03-24T18:39:05;3.33;;;1.47;;
6665;SDS011;3369;49.906;8.598;2023-03-24T18:41:33;2.27;;;1.00;;
6665;SDS011;3369;49.906;8.598;2023-03-24T18:44:01;2.97;;;0.97;;
6665;SDS011;3369;49.906;8.598;2023-03-24T18:46:29;3.13;;;1.20;;
6665;SDS011;3369;49.906;8.598;2023-03-24T18:48:55;4.80;;;1.80;;
6665;SDS011;3369;49.906;8.598;2023-03-24T18:51:22;3.37;;;1.70;;
6665;SDS011;3369;49.906;8.598;2023-03-24T18:53:52;3.77;;;1.40;;
6665;SDS011;3369;49.906;8.598;2023-03-24T18:56:19;3.53;;;1.10;;
6665;SDS011;3369;49.906;8.598;2023-03-24T18:58:46;6.33;;;4.50;;
6665;SDS011;3369;49.906;8.598;2023-03-24T19:01:13;20.83;;;14.60;;
6665;SDS011;3369;49.906;8.598;2023-03-24T19:03:42;23.30;;;15.63;;
6665;SDS011;3369;49.906;8.598;2023-03-24T19:06:10;21.97;;;14.53;;
6665;SDS011;3369;49.906;8.598;2023-03-24T19:29:28;9.97;;;5.80;;
6665;SDS011;3369;49.906;8.598;2023-03-24T19:31:59;26.67;;;16.93;;
6665;SDS011;3369;49.906;8.598;2023-03-24T19:34:31;40.40;;;23.97;;
6665;SDS011;3369;49.906;8.598;2023-03-24T19:36:57;23.77;;;15.33;;